F/V Moorea — FMIT — position and weather

sailwx.info

Track history (hours):
 
Tides and Currents Weather Stations Pressure Air Temp Water Temp Dewpoint Dewpoint Depression Visibility Wind Speed Wind Dir Waves Ship Positions

F/V Moorea

Last reported at 2014-Oct-31 18:31 UTC. Time now 2014-Oct-31 23:02 UTC.
Position N 46°38' W 002°44'.

Length 18 m.

Type: Fishing. MMSI: 228239900.

Date/timePositionNaut miles runAvg speedWind from/ knotsBaromVisibWave heightAir tempDewpointWater temp
2014-Oct-31 18:31N 46°38' W 002°44'5 2.0
2014-Oct-31 16:07N 46°41' W 002°38'2 2.6
2014-Oct-31 15:28N 46°42' W 002°39'2 1.8
2014-Oct-31 14:23N 46°41' W 002°41'6 1.2
2014-Oct-31 09:32N 46°36' W 002°38'3 2.9
2014-Oct-31 08:27N 46°39' W 002°40'3 3.1
2014-Oct-31 07:30N 46°41' W 002°42'3 3.1
2014-Oct-31 06:33N 46°44' W 002°39'3 2.8
2014-Oct-31 05:33N 46°44' W 002°35'3 2.6
2014-Oct-31 04:33N 46°45' W 002°31'2 2.0
2014-Oct-31 03:31N 46°47' W 002°30'4 3.5
2014-Oct-31 02:27N 46°50' W 002°33'3 3.5
2014-Oct-31 01:33N 46°52' W 002°36'4 3.6
2014-Oct-31 00:33N 46°56' W 002°38'7 6.9
2014-Oct-30 23:33N 47°03' W 002°37'1010.0
2014-Oct-30 22:33N 47°13' W 002°35'6 6.1
2014-Oct-30 21:33N 47°18' W 002°31'0 0.0
2014-Oct-30 20:34N 47°18' W 002°31'13 4.4
2014-Oct-30 17:33N 47°11' W 002°47'4 0.5
2014-Oct-30 09:33N 47°11' W 002°53'12 1.1
2014-Oct-29 22:34N 47°06' W 003°09'13 2.6
2014-Oct-29 17:33N 46°57' W 002°55'3 2.5
2014-Oct-29 16:08N 46°60' W 002°59'5 1.9
2014-Oct-29 13:27N 46°56' W 002°54'3 2.7
2014-Oct-29 12:31N 46°58' W 002°56'1 0.7
2014-Oct-29 10:33N 46°57' W 002°58'1 0.8
2014-Oct-29 09:32N 46°58' W 002°59'2 2.3
2014-Oct-29 08:32N 46°60' W 002°59'4 3.3
2014-Oct-29 07:27N 47°02' W 002°54'7 7.7
2014-Oct-29 06:33N 47°07' W 002°47'10 9.7
2014-Oct-29 05:33N 47°14' W 002°38'6 0.9
2014-Oct-28 22:30N 47°18' W 002°31'8 4.1
2014-Oct-28 20:32N 47°11' W 002°36'13 1.1
2014-Oct-28 09:19N 46°59' W 002°42'18 3.7
2014-Oct-28 04:32N 47°16' W 002°36'17 3.3
2014-Oct-27 23:29N 47°00' W 002°44'0 0.1
2014-Oct-27 21:09N 47°00' W 002°44'2 1.3
2014-Oct-27 19:33N 46°59' W 002°42'4 1.3
2014-Oct-27 16:29N 46°58' W 002°36'6 1.1
2014-Oct-27 11:15N 47°01' W 002°44'2 3.4
2014-Oct-27 10:33N 46°59' W 002°42'2 2.4
2014-Oct-27 09:33N 47°01' W 002°42'2 1.9
2014-Oct-27 08:33N 46°59' W 002°43'1 1.4
2014-Oct-27 07:33N 47°00' W 002°42'4 4.2
2014-Oct-27 06:33N 47°04' W 002°42'10 9.9
2014-Oct-27 05:32N 47°14' W 002°37'  
Track history (hours):
 
Tides and Currents Weather Stations Pressure Air Temp Water Temp Dewpoint Dewpoint Depression Visibility Wind Speed Wind Dir Waves Ship Positions

F/V Moorea

Last reported at 2014-Oct-31 18:31 UTC. Time now 2014-Oct-31 23:02 UTC.
Position N 46°38' W 002°44'.

Length 18 m.

Type: Fishing. MMSI: 228239900.

Date/timePositionNaut miles runAvg speedWind from/ knotsBaromVisibWave heightAir tempDewpointWater temp
2014-Oct-31 18:31N 46°38' W 002°44'5 2.0
2014-Oct-31 16:07N 46°41' W 002°38'2 2.6
2014-Oct-31 15:28N 46°42' W 002°39'2 1.8
2014-Oct-31 14:23N 46°41' W 002°41'6 1.2
2014-Oct-31 09:32N 46°36' W 002°38'3 2.9
2014-Oct-31 08:27N 46°39' W 002°40'3 3.1
2014-Oct-31 07:30N 46°41' W 002°42'3 3.1
2014-Oct-31 06:33N 46°44' W 002°39'3 2.8
2014-Oct-31 05:33N 46°44' W 002°35'3 2.6
2014-Oct-31 04:33N 46°45' W 002°31'2 2.0
2014-Oct-31 03:31N 46°47' W 002°30'4 3.5
2014-Oct-31 02:27N 46°50' W 002°33'3 3.5
2014-Oct-31 01:33N 46°52' W 002°36'4 3.6
2014-Oct-31 00:33N 46°56' W 002°38'7 6.9
2014-Oct-30 23:33N 47°03' W 002°37'1010.0
2014-Oct-30 22:33N 47°13' W 002°35'6 6.1
2014-Oct-30 21:33N 47°18' W 002°31'0 0.0
2014-Oct-30 20:34N 47°18' W 002°31'13 4.4
2014-Oct-30 17:33N 47°11' W 002°47'4 0.5
2014-Oct-30 09:33N 47°11' W 002°53'12 1.1
2014-Oct-29 22:34N 47°06' W 003°09'13 2.6
2014-Oct-29 17:33N 46°57' W 002°55'3 2.5
2014-Oct-29 16:08N 46°60' W 002°59'5 1.9
2014-Oct-29 13:27N 46°56' W 002°54'3 2.7
2014-Oct-29 12:31N 46°58' W 002°56'1 0.7
2014-Oct-29 10:33N 46°57' W 002°58'1 0.8
2014-Oct-29 09:32N 46°58' W 002°59'2 2.3
2014-Oct-29 08:32N 46°60' W 002°59'4 3.3
2014-Oct-29 07:27N 47°02' W 002°54'7 7.7
2014-Oct-29 06:33N 47°07' W 002°47'10 9.7
2014-Oct-29 05:33N 47°14' W 002°38'6 0.9
2014-Oct-28 22:30N 47°18' W 002°31'8 4.1
2014-Oct-28 20:32N 47°11' W 002°36'13 1.1
2014-Oct-28 09:19N 46°59' W 002°42'18 3.7
2014-Oct-28 04:32N 47°16' W 002°36'17 3.3
2014-Oct-27 23:29N 47°00' W 002°44'0 0.1
2014-Oct-27 21:09N 47°00' W 002°44'2 1.3
2014-Oct-27 19:33N 46°59' W 002°42'4 1.3
2014-Oct-27 16:29N 46°58' W 002°36'6 1.1
2014-Oct-27 11:15N 47°01' W 002°44'2 3.4
2014-Oct-27 10:33N 46°59' W 002°42'2 2.4
2014-Oct-27 09:33N 47°01' W 002°42'2 1.9
2014-Oct-27 08:33N 46°59' W 002°43'1 1.4
2014-Oct-27 07:33N 47°00' W 002°42'4 4.2
2014-Oct-27 06:33N 47°04' W 002°42'10 9.9
2014-Oct-27 05:32N 47°14' W 002°37'  

Dump ship's entire track history